createdAt,value
2023-04-13T00:05:01.130Z,27.00
2023-04-13T00:15:07.707Z,28.30
2023-04-13T00:25:16.158Z,28.30
2023-04-13T00:35:23.046Z,39.50
2023-04-13T00:45:30.876Z,48.40
2023-04-13T00:55:39.607Z,30.70
2023-04-13T01:05:50.736Z,28.50
2023-04-13T01:16:01.058Z,32.20
2023-04-13T01:26:09.811Z,34.10
2023-04-13T01:36:17.969Z,34.70
2023-04-13T01:46:30.697Z,53.30
2023-04-13T01:56:37.840Z,38.50
2023-04-13T02:06:44.927Z,28.90
2023-04-13T02:16:52.559Z,25.80
2023-04-13T02:26:59.669Z,26.30
2023-04-13T02:37:06.501Z,26.70
2023-04-13T02:47:13.603Z,46.40
2023-04-13T02:57:20.502Z,35.10
2023-04-13T03:07:27.553Z,33.40
2023-04-13T03:17:34.724Z,36.90
2023-04-13T03:27:42.112Z,50.30
2023-04-13T03:37:49.059Z,40.30
2023-04-13T03:47:56.445Z,28.80
2023-04-13T03:58:03.739Z,26.90
2023-04-13T04:08:10.633Z,27.90
2023-04-13T04:18:17.681Z,42.10
2023-04-13T04:28:24.694Z,53.10
2023-04-13T04:38:33.078Z,34.90
2023-04-13T04:48:40.182Z,30.20
2023-04-13T04:58:46.710Z,30.10
2023-04-13T05:08:54.148Z,37.00
2023-04-13T05:19:01.310Z,34.10
2023-04-13T05:29:09.562Z,36.80
2023-04-13T05:39:16.416Z,38.10
2023-04-13T05:49:23.482Z,38.40
2023-04-13T05:59:31.196Z,43.10
2023-04-13T06:09:38.663Z,35.70
2023-04-13T06:19:46.180Z,36.90
2023-04-13T06:29:53.589Z,38.20
2023-04-13T06:39:59.480Z,32.80
2023-04-13T06:50:06.615Z,38.10
2023-04-13T07:00:29.025Z,31.20
2023-04-13T07:10:36.911Z,27.30
2023-04-13T07:20:44.634Z,23.40
2023-04-13T07:30:51.712Z,22.00
2023-04-13T07:40:58.727Z,23.50
2023-04-13T07:51:04.652Z,25.00
2023-04-13T08:01:11.595Z,17.60
2023-04-13T08:11:19.578Z,18.00
2023-04-13T08:21:27.026Z,16.60
2023-04-13T08:31:34.214Z,8.10
2023-04-13T08:41:45.543Z,10.20
2023-04-13T08:51:52.791Z,9.30
2023-04-13T09:02:01.287Z,10.90
2023-04-13T09:22:17.485Z,17.60
2023-04-13T09:32:22.915Z,10.00
2023-04-13T09:42:30.122Z,9.20
2023-04-13T09:52:37.180Z,10.90
2023-04-13T10:02:44.524Z,12.70
2023-04-13T10:12:53.769Z,13.40
2023-04-13T10:23:01.459Z,7.30
2023-04-13T10:33:05.568Z,8.40
2023-04-13T10:43:33.126Z,18.10
2023-04-13T10:53:40.319Z,10.20
2023-04-13T11:04:00.753Z,10.90
2023-04-13T11:14:19.265Z,12.10
2023-04-13T11:24:33.968Z,11.70
2023-04-13T11:34:39.991Z,10.10
2023-04-13T11:44:47.110Z,12.50
2023-04-13T11:54:54.360Z,9.60
2023-04-13T12:05:00.636Z,9.70
2023-04-13T12:15:22.907Z,9.90
2023-04-13T12:25:35.858Z,9.00
2023-04-13T12:35:43.559Z,14.10
2023-04-13T12:55:56.213Z,14.10
2023-04-13T13:06:03.248Z,14.00
2023-04-13T13:16:09.427Z,14.10
2023-04-13T13:36:26.499Z,11.40
2023-04-13T13:46:33.710Z,12.40
2023-04-13T13:56:41.086Z,16.50
2023-04-13T14:06:49.729Z,12.90
2023-04-13T14:16:57.209Z,11.00
2023-04-13T14:27:04.460Z,10.40
2023-04-13T14:37:10.832Z,29.20
2023-04-13T14:47:18.245Z,12.60
2023-04-13T14:57:25.492Z,10.00
2023-04-13T15:07:32.516Z,18.00
2023-04-13T15:17:39.884Z,17.50
2023-04-13T15:27:49.615Z,22.50
2023-04-13T15:37:57.089Z,22.80
2023-04-13T15:48:04.538Z,23.40
2023-04-13T15:58:14.514Z,54.10
2023-04-13T16:08:20.787Z,23.00
2023-04-13T16:18:28.946Z,26.30
2023-04-13T16:28:37.455Z,32.70
2023-04-13T16:38:44.683Z,40.20
2023-04-13T16:48:52.177Z,42.10
2023-04-13T16:58:59.659Z,33.10
2023-04-13T17:09:07.437Z,37.00
2023-04-13T17:19:15.796Z,32.10
2023-04-13T17:29:22.881Z,58.40
2023-04-13T17:39:29.333Z,43.20
2023-04-13T17:49:35.652Z,49.80
2023-04-13T17:59:43.283Z,54.50
2023-04-13T18:09:51.099Z,40.70
2023-04-13T18:19:58.443Z,45.70
2023-04-13T18:30:03.443Z,39.80
2023-04-13T18:40:12.439Z,42.30
2023-04-13T18:50:19.540Z,55.50
2023-04-13T19:00:25.536Z,50.30
2023-04-13T19:10:31.609Z,40.20
2023-04-13T19:20:38.233Z,41.70
2023-04-13T19:30:44.635Z,57.70
2023-04-13T19:40:51.801Z,100.20
2023-04-13T19:50:59.037Z,72.10
2023-04-13T20:01:07.974Z,41.40
2023-04-13T20:11:15.242Z,52.00
2023-04-13T20:21:23.306Z,48.00
2023-04-13T20:31:32.256Z,48.60
2023-04-13T20:41:39.232Z,44.60
2023-04-13T20:51:47.197Z,49.10
2023-04-13T21:01:54.709Z,46.60
2023-04-13T21:12:02.778Z,50.10
2023-04-13T21:22:09.695Z,48.20
2023-04-13T21:32:17.112Z,55.20
2023-04-13T21:42:24.657Z,59.30
2023-04-13T21:52:31.114Z,58.70
2023-04-13T22:02:37.164Z,55.30
2023-04-13T22:12:44.558Z,43.70
2023-04-13T22:22:51.527Z,43.60
2023-04-13T22:32:58.938Z,45.80
2023-04-13T22:43:04.997Z,44.20
2023-04-13T22:53:12.164Z,47.80
2023-04-13T23:03:18.410Z,45.00
2023-04-13T23:13:24.818Z,43.00
2023-04-13T23:23:31.915Z,37.20
2023-04-13T23:33:39.110Z,32.10
2023-04-13T23:43:46.832Z,39.90
2023-04-13T23:53:53.772Z,38.60
